sensor_id;sensor_type;location;lat;lon;timestamp;P1;durP1;ratioP1;P2;durP2;ratioP2
49460;SDS011;35355;49.198;-0.368;2024-02-28T00:00:08;15.52;;;3.25;;
49460;SDS011;35355;49.198;-0.368;2024-02-28T00:02:35;7.00;;;2.75;;
49460;SDS011;35355;49.198;-0.368;2024-02-28T00:05:01;6.72;;;2.17;;
49460;SDS011;35355;49.198;-0.368;2024-02-28T00:07:26;6.63;;;2.75;;
49460;SDS011;35355;49.198;-0.368;2024-02-28T00:09:52;6.35;;;2.67;;
49460;SDS011;35355;49.198;-0.368;2024-02-28T00:12:17;4.55;;;2.25;;
49460;SDS011;35355;49.198;-0.368;2024-02-28T00:14:42;7.50;;;2.80;;
49460;SDS011;35355;49.198;-0.368;2024-02-28T00:17:08;5.30;;;2.42;;
49460;SDS011;35355;49.198;-0.368;2024-02-28T00:19:33;7.10;;;3.90;;
49460;SDS011;35355;49.198;-0.368;2024-02-28T00:21:58;7.25;;;4.25;;
49460;SDS011;35355;49.198;-0.368;2024-02-28T00:24:25;10.90;;;5.07;;
49460;SDS011;35355;49.198;-0.368;2024-02-28T00:26:50;18.52;;;7.65;;
49460;SDS011;35355;49.198;-0.368;2024-02-28T00:29:16;17.50;;;7.78;;
49460;SDS011;35355;49.198;-0.368;2024-02-28T00:31:41;14.23;;;6.60;;
49460;SDS011;35355;49.198;-0.368;2024-02-28T00:34:06;12.50;;;5.32;;
49460;SDS011;35355;49.198;-0.368;2024-02-28T00:36:33;11.30;;;5.07;;
49460;SDS011;35355;49.198;-0.368;2024-02-28T00:38:59;12.40;;;4.68;;
49460;SDS011;35355;49.198;-0.368;2024-02-28T00:41:24;7.93;;;4.55;;
49460;SDS011;35355;49.198;-0.368;2024-02-28T00:43:49;9.82;;;5.22;;
49460;SDS011;35355;49.198;-0.368;2024-02-28T00:46:15;10.23;;;4.70;;
49460;SDS011;35355;49.198;-0.368;2024-02-28T00:48:40;10.02;;;5.15;;
49460;SDS011;35355;49.198;-0.368;2024-02-28T00:51:06;12.75;;;5.75;;
49460;SDS011;35355;49.198;-0.368;2024-02-28T00:53:33;11.73;;;5.30;;
49460;SDS011;35355;49.198;-0.368;2024-02-28T00:55:58;10.63;;;5.35;;
49460;SDS011;35355;49.198;-0.368;2024-02-28T00:58:24;11.05;;;5.75;;
49460;SDS011;35355;49.198;-0.368;2024-02-28T01:00:51;9.73;;;4.70;;
49460;SDS011;35355;49.198;-0.368;2024-02-28T01:03:16;15.98;;;5.95;;
49460;SDS011;35355;49.198;-0.368;2024-02-28T01:05:43;10.60;;;4.97;;
49460;SDS011;35355;49.198;-0.368;2024-02-28T01:08:08;11.43;;;5.30;;
49460;SDS011;35355;49.198;-0.368;2024-02-28T01:10:34;13.70;;;4.65;;
49460;SDS011;35355;49.198;-0.368;2024-02-28T01:12:59;12.60;;;4.95;;
49460;SDS011;35355;49.198;-0.368;2024-02-28T01:15:25;9.07;;;4.78;;
49460;SDS011;35355;49.198;-0.368;2024-02-28T01:17:50;10.25;;;4.35;;
49460;SDS011;35355;49.198;-0.368;2024-02-28T01:20:16;10.45;;;4.05;;
49460;SDS011;35355;49.198;-0.368;2024-02-28T01:22:41;12.82;;;5.00;;
49460;SDS011;35355;49.198;-0.368;2024-02-28T01:25:06;10.10;;;3.80;;
49460;SDS011;35355;49.198;-0.368;2024-02-28T01:27:32;11.27;;;4.50;;
49460;SDS011;35355;49.198;-0.368;2024-02-28T01:29:57;9.18;;;3.65;;
49460;SDS011;35355;49.198;-0.368;2024-02-28T01:32:23;8.18;;;3.75;;
49460;SDS011;35355;49.198;-0.368;2024-02-28T01:34:48;8.07;;;4.07;;
49460;SDS011;35355;49.198;-0.368;2024-02-28T01:37:14;14.88;;;5.25;;
49460;SDS011;35355;49.198;-0.368;2024-02-28T01:39:39;9.90;;;4.13;;
49460;SDS011;35355;49.198;-0.368;2024-02-28T01:42:05;7.70;;;4.50;;
49460;SDS011;35355;49.198;-0.368;2024-02-28T01:44:30;9.13;;;4.53;;
49460;SDS011;35355;49.198;-0.368;2024-02-28T01:46:56;8.35;;;4.78;;
49460;SDS011;35355;49.198;-0.368;2024-02-28T01:49:23;11.32;;;4.13;;
49460;SDS011;35355;49.198;-0.368;2024-02-28T01:51:50;11.63;;;4.82;;
49460;SDS011;35355;49.198;-0.368;2024-02-28T01:54:16;9.75;;;4.50;;
49460;SDS011;35355;49.198;-0.368;2024-02-28T01:56:43;13.40;;;4.13;;
49460;SDS011;35355;49.198;-0.368;2024-02-28T01:59:09;11.20;;;4.80;;
49460;SDS011;35355;49.198;-0.368;2024-02-28T02:01:36;10.57;;;4.45;;
49460;SDS011;35355;49.198;-0.368;2024-02-28T02:04:01;9.85;;;5.13;;
49460;SDS011;35355;49.198;-0.368;2024-02-28T02:06:28;11.85;;;4.47;;
49460;SDS011;35355;49.198;-0.368;2024-02-28T02:08:54;9.35;;;4.03;;
49460;SDS011;35355;49.198;-0.368;2024-02-28T02:11:20;8.77;;;4.43;;
49460;SDS011;35355;49.198;-0.368;2024-02-28T02:13:47;11.15;;;3.90;;
49460;SDS011;35355;49.198;-0.368;2024-02-28T02:16:13;9.95;;;4.47;;
49460;SDS011;35355;49.198;-0.368;2024-02-28T02:18:38;11.30;;;3.80;;
49460;SDS011;35355;49.198;-0.368;2024-02-28T02:21:04;10.20;;;4.03;;
49460;SDS011;35355;49.198;-0.368;2024-02-28T02:23:31;10.95;;;4.78;;
49460;SDS011;35355;49.198;-0.368;2024-02-28T02:25:57;10.15;;;3.92;;
49460;SDS011;35355;49.198;-0.368;2024-02-28T02:28:22;14.80;;;4.60;;
49460;SDS011;35355;49.198;-0.368;2024-02-28T02:30:48;11.70;;;3.75;;
49460;SDS011;35355;49.198;-0.368;2024-02-28T02:33:13;5.85;;;3.40;;
49460;SDS011;35355;49.198;-0.368;2024-02-28T02:35:39;7.93;;;3.10;;
49460;SDS011;35355;49.198;-0.368;2024-02-28T02:38:04;6.00;;;2.67;;
49460;SDS011;35355;49.198;-0.368;2024-02-28T02:40:30;8.23;;;3.00;;
49460;SDS011;35355;49.198;-0.368;2024-02-28T02:42:55;10.52;;;3.20;;
49460;SDS011;35355;49.198;-0.368;2024-02-28T02:45:20;11.23;;;3.42;;
49460;SDS011;35355;49.198;-0.368;2024-02-28T02:47:46;6.82;;;2.58;;
49460;SDS011;35355;49.198;-0.368;2024-02-28T02:50:11;7.90;;;2.92;;
49460;SDS011;35355;49.198;-0.368;2024-02-28T02:52:37;8.68;;;3.35;;
49460;SDS011;35355;49.198;-0.368;2024-02-28T02:55:03;7.47;;;3.15;;
49460;SDS011;35355;49.198;-0.368;2024-02-28T02:57:28;9.65;;;2.97;;
49460;SDS011;35355;49.198;-0.368;2024-02-28T02:59:55;5.65;;;3.17;;
49460;SDS011;35355;49.198;-0.368;2024-02-28T03:02:21;13.25;;;3.88;;
49460;SDS011;35355;49.198;-0.368;2024-02-28T03:04:46;11.93;;;3.00;;
49460;SDS011;35355;49.198;-0.368;2024-02-28T03:07:12;6.53;;;2.50;;
49460;SDS011;35355;49.198;-0.368;2024-02-28T03:09:37;14.60;;;4.82;;
49460;SDS011;35355;49.198;-0.368;2024-02-28T03:12:03;9.30;;;2.20;;
49460;SDS011;35355;49.198;-0.368;2024-02-28T03:14:28;8.85;;;3.63;;
49460;SDS011;35355;49.198;-0.368;2024-02-28T03:16:53;8.45;;;3.00;;
49460;SDS011;35355;49.198;-0.368;2024-02-28T03:19:19;10.98;;;2.88;;
49460;SDS011;35355;49.198;-0.368;2024-02-28T03:21:45;7.35;;;3.00;;
49460;SDS011;35355;49.198;-0.368;2024-02-28T03:24:11;4.72;;;2.67;;
49460;SDS011;35355;49.198;-0.368;2024-02-28T03:26:36;7.93;;;3.25;;
49460;SDS011;35355;49.198;-0.368;2024-02-28T03:29:02;9.88;;;3.00;;
49460;SDS011;35355;49.198;-0.368;2024-02-28T03:31:27;6.75;;;2.78;;
49460;SDS011;35355;49.198;-0.368;2024-02-28T03:33:53;11.90;;;2.40;;
49460;SDS011;35355;49.198;-0.368;2024-02-28T03:36:18;8.95;;;2.90;;
49460;SDS011;35355;49.198;-0.368;2024-02-28T03:38:43;8.20;;;3.10;;
49460;SDS011;35355;49.198;-0.368;2024-02-28T03:41:09;6.20;;;3.20;;
49460;SDS011;35355;49.198;-0.368;2024-02-28T03:43:34;9.25;;;3.13;;
49460;SDS011;35355;49.198;-0.368;2024-02-28T03:46:00;7.85;;;3.78;;
49460;SDS011;35355;49.198;-0.368;2024-02-28T03:48:25;7.30;;;3.22;;
49460;SDS011;35355;49.198;-0.368;2024-02-28T03:50:51;10.85;;;3.40;;
49460;SDS011;35355;49.198;-0.368;2024-02-28T03:53:16;7.93;;;2.80;;
49460;SDS011;35355;49.198;-0.368;2024-02-28T03:55:42;7.43;;;2.85;;
49460;SDS011;35355;49.198;-0.368;2024-02-28T03:58:09;14.10;;;3.60;;
49460;SDS011;35355;49.198;-0.368;2024-02-28T04:00:34;8.90;;;2.95;;
49460;SDS011;35355;49.198;-0.368;2024-02-28T04:03:00;10.70;;;3.00;;
49460;SDS011;35355;49.198;-0.368;2024-02-28T04:05:26;8.15;;;2.80;;
49460;SDS011;35355;49.198;-0.368;2024-02-28T04:07:51;9.10;;;3.03;;
49460;SDS011;35355;49.198;-0.368;2024-02-28T04:10:16;9.68;;;3.10;;
49460;SDS011;35355;49.198;-0.368;2024-02-28T04:12:42;7.20;;;3.20;;
49460;SDS011;35355;49.198;-0.368;2024-02-28T04:15:10;7.53;;;3.30;;
49460;SDS011;35355;49.198;-0.368;2024-02-28T04:17:37;8.75;;;3.15;;
49460;SDS011;35355;49.198;-0.368;2024-02-28T04:20:02;7.50;;;2.78;;
49460;SDS011;35355;49.198;-0.368;2024-02-28T04:22:29;7.22;;;3.05;;
49460;SDS011;35355;49.198;-0.368;2024-02-28T04:24:56;8.13;;;3.05;;
49460;SDS011;35355;49.198;-0.368;2024-02-28T04:27:21;8.30;;;2.83;;
49460;SDS011;35355;49.198;-0.368;2024-02-28T04:29:47;5.20;;;2.92;;
49460;SDS011;35355;49.198;-0.368;2024-02-28T04:32:12;7.38;;;3.17;;
49460;SDS011;35355;49.198;-0.368;2024-02-28T04:34:37;8.40;;;3.15;;
49460;SDS011;35355;49.198;-0.368;2024-02-28T04:37:03;13.75;;;3.13;;
49460;SDS011;35355;49.198;-0.368;2024-02-28T04:39:28;10.18;;;3.45;;
49460;SDS011;35355;49.198;-0.368;2024-02-28T04:41:54;5.22;;;2.63;;
49460;SDS011;35355;49.198;-0.368;2024-02-28T04:44:19;8.02;;;3.00;;
49460;SDS011;35355;49.198;-0.368;2024-02-28T04:46:44;11.30;;;2.95;;
49460;SDS011;35355;49.198;-0.368;2024-02-28T04:49:10;7.95;;;2.75;;
49460;SDS011;35355;49.198;-0.368;2024-02-28T04:51:35;9.63;;;2.80;;
49460;SDS011;35355;49.198;-0.368;2024-02-28T04:54:00;6.60;;;2.10;;
49460;SDS011;35355;49.198;-0.368;2024-02-28T04:56:25;11.07;;;3.13;;
49460;SDS011;35355;49.198;-0.368;2024-02-28T04:58:51;4.35;;;2.40;;
49460;SDS011;35355;49.198;-0.368;2024-02-28T05:01:16;8.90;;;2.95;;
49460;SDS011;35355;49.198;-0.368;2024-02-28T05:03:41;6.15;;;2.38;;
49460;SDS011;35355;49.198;-0.368;2024-02-28T05:06:07;5.90;;;2.80;;
49460;SDS011;35355;49.198;-0.368;2024-02-28T05:08:32;8.25;;;2.97;;
49460;SDS011;35355;49.198;-0.368;2024-02-28T05:10:57;9.38;;;2.90;;
49460;SDS011;35355;49.198;-0.368;2024-02-28T05:13:23;10.55;;;3.50;;
49460;SDS011;35355;49.198;-0.368;2024-02-28T05:15:49;10.05;;;2.90;;
49460;SDS011;35355;49.198;-0.368;2024-02-28T05:18:15;8.38;;;2.85;;
49460;SDS011;35355;49.198;-0.368;2024-02-28T05:20:41;5.78;;;2.60;;
49460;SDS011;35355;49.198;-0.368;2024-02-28T05:23:06;8.93;;;3.70;;
49460;SDS011;35355;49.198;-0.368;2024-02-28T05:25:32;7.07;;;3.35;;
49460;SDS011;35355;49.198;-0.368;2024-02-28T05:27:57;6.38;;;2.40;;
49460;SDS011;35355;49.198;-0.368;2024-02-28T05:30:22;10.00;;;2.33;;
49460;SDS011;35355;49.198;-0.368;2024-02-28T05:32:48;9.32;;;3.45;;
49460;SDS011;35355;49.198;-0.368;2024-02-28T05:35:13;8.25;;;2.67;;
49460;SDS011;35355;49.198;-0.368;2024-02-28T05:37:39;8.55;;;2.45;;
49460;SDS011;35355;49.198;-0.368;2024-02-28T05:40:06;6.35;;;2.70;;
49460;SDS011;35355;49.198;-0.368;2024-02-28T05:42:32;7.57;;;3.47;;
49460;SDS011;35355;49.198;-0.368;2024-02-28T05:44:57;5.80;;;2.65;;
49460;SDS011;35355;49.198;-0.368;2024-02-28T05:47:23;7.47;;;2.88;;
49460;SDS011;35355;49.198;-0.368;2024-02-28T05:49:48;10.30;;;2.80;;
49460;SDS011;35355;49.198;-0.368;2024-02-28T05:52:13;8.40;;;2.40;;
49460;SDS011;35355;49.198;-0.368;2024-02-28T05:54:40;7.68;;;3.53;;
49460;SDS011;35355;49.198;-0.368;2024-02-28T05:57:05;8.90;;;2.85;;
49460;SDS011;35355;49.198;-0.368;2024-02-28T05:59:30;5.97;;;2.58;;
49460;SDS011;35355;49.198;-0.368;2024-02-28T06:01:56;7.18;;;3.17;;
49460;SDS011;35355;49.198;-0.368;2024-02-28T06:04:21;13.38;;;2.72;;
49460;SDS011;35355;49.198;-0.368;2024-02-28T06:06:46;9.50;;;2.92;;
49460;SDS011;35355;49.198;-0.368;2024-02-28T06:09:12;7.70;;;2.83;;
49460;SDS011;35355;49.198;-0.368;2024-02-28T06:11:37;7.43;;;2.80;;
49460;SDS011;35355;49.198;-0.368;2024-02-28T06:14:02;5.40;;;2.50;;
49460;SDS011;35355;49.198;-0.368;2024-02-28T06:16:29;9.93;;;2.95;;
49460;SDS011;35355;49.198;-0.368;2024-02-28T06:18:55;13.60;;;3.42;;
49460;SDS011;35355;49.198;-0.368;2024-02-28T06:21:23;10.05;;;3.53;;
49460;SDS011;35355;49.198;-0.368;2024-02-28T06:23:49;8.13;;;2.90;;
49460;SDS011;35355;49.198;-0.368;2024-02-28T06:26:14;10.13;;;3.50;;
49460;SDS011;35355;49.198;-0.368;2024-02-28T06:28:45;10.40;;;3.40;;
49460;SDS011;35355;49.198;-0.368;2024-02-28T06:31:17;8.80;;;2.97;;
49460;SDS011;35355;49.198;-0.368;2024-02-28T06:33:43;10.15;;;3.22;;
49460;SDS011;35355;49.198;-0.368;2024-02-28T06:36:09;9.23;;;2.80;;
49460;SDS011;35355;49.198;-0.368;2024-02-28T06:38:34;9.73;;;3.30;;
49460;SDS011;35355;49.198;-0.368;2024-02-28T06:41:01;6.88;;;3.13;;
49460;SDS011;35355;49.198;-0.368;2024-02-28T06:43:32;12.27;;;3.55;;
49460;SDS011;35355;49.198;-0.368;2024-02-28T06:45:59;14.52;;;3.42;;
49460;SDS011;35355;49.198;-0.368;2024-02-28T06:48:24;8.07;;;3.25;;
49460;SDS011;35355;49.198;-0.368;2024-02-28T06:50:49;12.98;;;4.13;;
49460;SDS011;35355;49.198;-0.368;2024-02-28T06:53:15;11.73;;;4.43;;
49460;SDS011;35355;49.198;-0.368;2024-02-28T06:55:40;12.75;;;3.83;;
49460;SDS011;35355;49.198;-0.368;2024-02-28T06:58:05;14.73;;;3.70;;
49460;SDS011;35355;49.198;-0.368;2024-02-28T07:00:31;13.90;;;4.18;;
49460;SDS011;35355;49.198;-0.368;2024-02-28T07:02:56;16.38;;;3.85;;
49460;SDS011;35355;49.198;-0.368;2024-02-28T07:05:21;11.65;;;3.80;;
49460;SDS011;35355;49.198;-0.368;2024-02-28T07:07:47;11.70;;;3.90;;
49460;SDS011;35355;49.198;-0.368;2024-02-28T07:10:12;15.70;;;4.60;;
49460;SDS011;35355;49.198;-0.368;2024-02-28T07:12:38;13.52;;;3.55;;
49460;SDS011;35355;49.198;-0.368;2024-02-28T07:15:04;7.65;;;3.65;;
49460;SDS011;35355;49.198;-0.368;2024-02-28T07:17:29;12.98;;;4.30;;
49460;SDS011;35355;49.198;-0.368;2024-02-28T07:19:55;13.05;;;4.50;;
49460;SDS011;35355;49.198;-0.368;2024-02-28T07:22:20;13.25;;;3.75;;
49460;SDS011;35355;49.198;-0.368;2024-02-28T07:24:46;10.52;;;4.20;;
49460;SDS011;35355;49.198;-0.368;2024-02-28T07:27:11;11.02;;;4.15;;
49460;SDS011;35355;49.198;-0.368;2024-02-28T07:29:37;9.52;;;4.13;;
49460;SDS011;35355;49.198;-0.368;2024-02-28T07:32:05;10.25;;;4.05;;
49460;SDS011;35355;49.198;-0.368;2024-02-28T07:34:31;9.25;;;4.00;;
49460;SDS011;35355;49.198;-0.368;2024-02-28T07:36:56;16.23;;;5.68;;
49460;SDS011;35355;49.198;-0.368;2024-02-28T07:39:22;16.33;;;4.88;;
49460;SDS011;35355;49.198;-0.368;2024-02-28T07:41:49;11.23;;;4.20;;
49460;SDS011;35355;49.198;-0.368;2024-02-28T07:44:15;13.40;;;4.40;;
49460;SDS011;35355;49.198;-0.368;2024-02-28T07:46:41;90.68;;;12.20;;
49460;SDS011;35355;49.198;-0.368;2024-02-28T07:49:06;12.20;;;5.20;;
49460;SDS011;35355;49.198;-0.368;2024-02-28T07:51:32;20.20;;;5.80;;
49460;SDS011;35355;49.198;-0.368;2024-02-28T07:53:57;11.88;;;4.38;;
49460;SDS011;35355;49.198;-0.368;2024-02-28T07:56:23;64.72;;;10.23;;
49460;SDS011;35355;49.198;-0.368;2024-02-28T07:58:50;13.20;;;5.30;;
49460;SDS011;35355;49.198;-0.368;2024-02-28T08:01:16;9.68;;;5.38;;
49460;SDS011;35355;49.198;-0.368;2024-02-28T08:03:41;76.72;;;11.43;;
49460;SDS011;35355;49.198;-0.368;2024-02-28T08:06:07;32.15;;;6.90;;
49460;SDS011;35355;49.198;-0.368;2024-02-28T08:08:36;18.70;;;5.30;;
49460;SDS011;35355;49.198;-0.368;2024-02-28T08:11:02;11.32;;;5.45;;
49460;SDS011;35355;49.198;-0.368;2024-02-28T08:13:28;10.10;;;5.00;;
49460;SDS011;35355;49.198;-0.368;2024-02-28T08:15:54;11.77;;;4.13;;
49460;SDS011;35355;49.198;-0.368;2024-02-28T08:18:19;11.55;;;5.05;;
49460;SDS011;35355;49.198;-0.368;2024-02-28T08:20:44;9.90;;;4.50;;
49460;SDS011;35355;49.198;-0.368;2024-02-28T08:23:10;11.57;;;5.18;;
49460;SDS011;35355;49.198;-0.368;2024-02-28T08:25:35;7.95;;;4.32;;
49460;SDS011;35355;49.198;-0.368;2024-02-28T08:28:01;16.60;;;5.00;;
49460;SDS011;35355;49.198;-0.368;2024-02-28T08:30:26;12.80;;;5.03;;
49460;SDS011;35355;49.198;-0.368;2024-02-28T08:32:52;10.88;;;5.15;;
49460;SDS011;35355;49.198;-0.368;2024-02-28T08:35:20;7.90;;;4.00;;
49460;SDS011;35355;49.198;-0.368;2024-02-28T08:37:45;8.80;;;4.20;;
49460;SDS011;35355;49.198;-0.368;2024-02-28T08:40:11;11.30;;;4.60;;
49460;SDS011;35355;49.198;-0.368;2024-02-28T08:42:37;12.20;;;4.82;;
49460;SDS011;35355;49.198;-0.368;2024-02-28T08:45:03;13.95;;;4.63;;
49460;SDS011;35355;49.198;-0.368;2024-02-28T08:47:39;9.63;;;4.47;;
49460;SDS011;35355;49.198;-0.368;2024-02-28T08:50:09;19.75;;;6.18;;
49460;SDS011;35355;49.198;-0.368;2024-02-28T08:52:34;11.00;;;5.65;;
49460;SDS011;35355;49.198;-0.368;2024-02-28T08:55:00;11.70;;;5.35;;
49460;SDS011;35355;49.198;-0.368;2024-02-28T08:57:25;16.70;;;6.47;;
49460;SDS011;35355;49.198;-0.368;2024-02-28T08:59:51;9.27;;;4.55;;
49460;SDS011;35355;49.198;-0.368;2024-02-28T09:02:19;9.23;;;4.90;;
49460;SDS011;35355;49.198;-0.368;2024-02-28T09:04:44;8.23;;;5.20;;
49460;SDS011;35355;49.198;-0.368;2024-02-28T09:07:17;12.98;;;5.45;;
49460;SDS011;35355;49.198;-0.368;2024-02-28T09:09:45;12.82;;;5.40;;
49460;SDS011;35355;49.198;-0.368;2024-02-28T09:12:11;10.20;;;5.20;;
49460;SDS011;35355;49.198;-0.368;2024-02-28T09:14:39;11.40;;;5.30;;
49460;SDS011;35355;49.198;-0.368;2024-02-28T09:17:05;14.15;;;5.75;;
49460;SDS011;35355;49.198;-0.368;2024-02-28T09:19:31;10.05;;;4.82;;
49460;SDS011;35355;49.198;-0.368;2024-02-28T09:21:57;12.30;;;4.95;;
49460;SDS011;35355;49.198;-0.368;2024-02-28T09:24:23;14.98;;;6.35;;
49460;SDS011;35355;49.198;-0.368;2024-02-28T09:26:49;14.20;;;5.32;;
49460;SDS011;35355;49.198;-0.368;2024-02-28T09:29:17;8.48;;;4.63;;
49460;SDS011;35355;49.198;-0.368;2024-02-28T09:31:42;9.07;;;5.15;;
49460;SDS011;35355;49.198;-0.368;2024-02-28T09:34:11;8.45;;;4.28;;
49460;SDS011;35355;49.198;-0.368;2024-02-28T09:36:43;8.13;;;5.00;;
49460;SDS011;35355;49.198;-0.368;2024-02-28T09:39:10;16.80;;;5.60;;
49460;SDS011;35355;49.198;-0.368;2024-02-28T09:41:42;8.82;;;4.35;;
49460;SDS011;35355;49.198;-0.368;2024-02-28T09:44:08;8.30;;;4.50;;
49460;SDS011;35355;49.198;-0.368;2024-02-28T09:46:33;8.88;;;4.95;;
49460;SDS011;35355;49.198;-0.368;2024-02-28T09:49:01;9.13;;;4.38;;
49460;SDS011;35355;49.198;-0.368;2024-02-28T09:51:32;7.78;;;3.70;;
49460;SDS011;35355;49.198;-0.368;2024-02-28T09:54:08;10.15;;;4.20;;
49460;SDS011;35355;49.198;-0.368;2024-02-28T09:56:34;7.05;;;4.05;;
49460;SDS011;35355;49.198;-0.368;2024-02-28T09:59:00;5.47;;;3.15;;
49460;SDS011;35355;49.198;-0.368;2024-02-28T10:01:28;7.95;;;3.65;;
49460;SDS011;35355;49.198;-0.368;2024-02-28T10:04:01;9.75;;;3.05;;
49460;SDS011;35355;49.198;-0.368;2024-02-28T10:06:30;8.48;;;3.83;;
49460;SDS011;35355;49.198;-0.368;2024-02-28T10:08:56;12.75;;;3.75;;
49460;SDS011;35355;49.198;-0.368;2024-02-28T10:11:24;4.72;;;3.20;;
49460;SDS011;35355;49.198;-0.368;2024-02-28T10:13:50;6.10;;;3.17;;
49460;SDS011;35355;49.198;-0.368;2024-02-28T10:16:17;4.85;;;2.95;;
49460;SDS011;35355;49.198;-0.368;2024-02-28T10:18:46;8.07;;;3.08;;
49460;SDS011;35355;49.198;-0.368;2024-02-28T10:21:12;6.28;;;3.10;;
49460;SDS011;35355;49.198;-0.368;2024-02-28T10:23:40;5.78;;;2.45;;
49460;SDS011;35355;49.198;-0.368;2024-02-28T10:26:09;2.88;;;2.35;;
49460;SDS011;35355;49.198;-0.368;2024-02-28T10:28:42;3.05;;;1.83;;
49460;SDS011;35355;49.198;-0.368;2024-02-28T10:31:20;4.35;;;2.45;;
49460;SDS011;35355;49.198;-0.368;2024-02-28T10:33:46;4.60;;;2.53;;
49460;SDS011;35355;49.198;-0.368;2024-02-28T10:36:12;5.13;;;2.13;;
49460;SDS011;35355;49.198;-0.368;2024-02-28T10:38:40;2.55;;;1.95;;
49460;SDS011;35355;49.198;-0.368;2024-02-28T10:41:06;3.38;;;2.08;;
49460;SDS011;35355;49.198;-0.368;2024-02-28T10:43:35;6.38;;;2.58;;
49460;SDS011;35355;49.198;-0.368;2024-02-28T10:46:01;3.22;;;2.17;;
49460;SDS011;35355;49.198;-0.368;2024-02-28T10:48:26;7.55;;;4.05;;
49460;SDS011;35355;49.198;-0.368;2024-02-28T10:50:54;6.50;;;3.15;;
49460;SDS011;35355;49.198;-0.368;2024-02-28T10:53:24;4.75;;;2.75;;
49460;SDS011;35355;49.198;-0.368;2024-02-28T10:55:57;5.10;;;2.47;;
49460;SDS011;35355;49.198;-0.368;2024-02-28T10:58:30;2.58;;;1.80;;
49460;SDS011;35355;49.198;-0.368;2024-02-28T11:01:08;5.55;;;1.70;;
49460;SDS011;35355;49.198;-0.368;2024-02-28T11:03:34;2.38;;;1.55;;
49460;SDS011;35355;49.198;-0.368;2024-02-28T11:06:02;3.25;;;2.10;;
49460;SDS011;35355;49.198;-0.368;2024-02-28T11:08:32;3.22;;;1.33;;
49460;SDS011;35355;49.198;-0.368;2024-02-28T11:11:03;1.60;;;1.13;;
49460;SDS011;35355;49.198;-0.368;2024-02-28T11:13:31;2.75;;;1.75;;
49460;SDS011;35355;49.198;-0.368;2024-02-28T11:16:09;2.65;;;1.15;;
49460;SDS011;35355;49.198;-0.368;2024-02-28T11:18:35;1.98;;;1.33;;
49460;SDS011;35355;49.198;-0.368;2024-02-28T11:21:19;3.58;;;1.35;;
49460;SDS011;35355;49.198;-0.368;2024-02-28T11:23:49;3.00;;;1.00;;
49460;SDS011;35355;49.198;-0.368;2024-02-28T11:26:18;3.05;;;1.08;;
49460;SDS011;35355;49.198;-0.368;2024-02-28T11:28:44;4.13;;;2.22;;
49460;SDS011;35355;49.198;-0.368;2024-02-28T11:31:10;5.55;;;2.63;;
49460;SDS011;35355;49.198;-0.368;2024-02-28T11:33:35;3.92;;;1.92;;
49460;SDS011;35355;49.198;-0.368;2024-02-28T11:36:01;4.35;;;1.85;;
49460;SDS011;35355;49.198;-0.368;2024-02-28T11:38:28;7.22;;;2.90;;
49460;SDS011;35355;49.198;-0.368;2024-02-28T11:40:56;10.57;;;2.95;;
49460;SDS011;35355;49.198;-0.368;2024-02-28T11:43:22;3.15;;;1.42;;
49460;SDS011;35355;49.198;-0.368;2024-02-28T11:45:49;2.85;;;1.80;;
49460;SDS011;35355;49.198;-0.368;2024-02-28T11:48:17;6.50;;;2.65;;
49460;SDS011;35355;49.198;-0.368;2024-02-28T11:50:43;4.07;;;2.00;;
49460;SDS011;35355;49.198;-0.368;2024-02-28T11:53:09;4.28;;;2.25;;
49460;SDS011;35355;49.198;-0.368;2024-02-28T11:55:34;7.85;;;2.92;;
49460;SDS011;35355;49.198;-0.368;2024-02-28T11:58:01;5.40;;;2.53;;
49460;SDS011;35355;49.198;-0.368;2024-02-28T12:00:26;3.10;;;2.05;;
49460;SDS011;35355;49.198;-0.368;2024-02-28T12:02:52;3.28;;;1.92;;
49460;SDS011;35355;49.198;-0.368;2024-02-28T12:05:29;3.35;;;2.00;;
49460;SDS011;35355;49.198;-0.368;2024-02-28T12:07:54;2.63;;;1.60;;
49460;SDS011;35355;49.198;-0.368;2024-02-28T12:10:23;2.55;;;1.70;;
49460;SDS011;35355;49.198;-0.368;2024-02-28T12:12:48;2.55;;;1.90;;
49460;SDS011;35355;49.198;-0.368;2024-02-28T12:15:15;2.78;;;1.80;;
49460;SDS011;35355;49.198;-0.368;2024-02-28T12:17:49;3.58;;;2.40;;
49460;SDS011;35355;49.198;-0.368;2024-02-28T12:20:17;4.72;;;2.60;;
49460;SDS011;35355;49.198;-0.368;2024-02-28T12:22:48;3.22;;;1.65;;
49460;SDS011;35355;49.198;-0.368;2024-02-28T12:25:14;3.97;;;1.70;;
49460;SDS011;35355;49.198;-0.368;2024-02-28T12:27:40;2.63;;;1.55;;
49460;SDS011;35355;49.198;-0.368;2024-02-28T12:30:06;2.83;;;1.75;;
49460;SDS011;35355;49.198;-0.368;2024-02-28T12:32:32;2.30;;;1.77;;
49460;SDS011;35355;49.198;-0.368;2024-02-28T12:34:57;3.25;;;1.45;;
49460;SDS011;35355;49.198;-0.368;2024-02-28T12:37:23;3.05;;;1.63;;
49460;SDS011;35355;49.198;-0.368;2024-02-28T12:39:48;3.00;;;1.50;;
49460;SDS011;35355;49.198;-0.368;2024-02-28T12:42:16;4.03;;;1.30;;
49460;SDS011;35355;49.198;-0.368;2024-02-28T12:44:42;2.50;;;1.60;;
49460;SDS011;35355;49.198;-0.368;2024-02-28T12:47:11;2.67;;;1.85;;
49460;SDS011;35355;49.198;-0.368;2024-02-28T12:49:39;3.50;;;1.92;;
49460;SDS011;35355;49.198;-0.368;2024-02-28T12:52:05;2.45;;;1.67;;
49460;SDS011;35355;49.198;-0.368;2024-02-28T12:54:30;2.85;;;1.77;;
49460;SDS011;35355;49.198;-0.368;2024-02-28T12:56:55;3.22;;;2.03;;
49460;SDS011;35355;49.198;-0.368;2024-02-28T12:59:21;3.17;;;1.67;;
49460;SDS011;35355;49.198;-0.368;2024-02-28T13:01:46;2.97;;;1.58;;
49460;SDS011;35355;49.198;-0.368;2024-02-28T13:04:14;2.47;;;1.48;;
49460;SDS011;35355;49.198;-0.368;2024-02-28T13:06:40;2.65;;;1.75;;
49460;SDS011;35355;49.198;-0.368;2024-02-28T13:09:05;5.25;;;1.98;;
49460;SDS011;35355;49.198;-0.368;2024-02-28T13:11:37;1.80;;;1.58;;
49460;SDS011;35355;49.198;-0.368;2024-02-28T13:14:02;2.95;;;1.92;;
49460;SDS011;35355;49.198;-0.368;2024-02-28T13:16:28;2.63;;;1.27;;
49460;SDS011;35355;49.198;-0.368;2024-02-28T13:18:53;2.60;;;1.75;;
49460;SDS011;35355;49.198;-0.368;2024-02-28T13:21:19;2.17;;;1.30;;
49460;SDS011;35355;49.198;-0.368;2024-02-28T13:23:44;2.47;;;1.60;;
49460;SDS011;35355;49.198;-0.368;2024-02-28T13:26:10;2.80;;;1.50;;
49460;SDS011;35355;49.198;-0.368;2024-02-28T13:28:42;4.00;;;1.33;;
49460;SDS011;35355;49.198;-0.368;2024-02-28T13:31:17;1.98;;;1.20;;
49460;SDS011;35355;49.198;-0.368;2024-02-28T13:33:42;2.13;;;1.08;;
49460;SDS011;35355;49.198;-0.368;2024-02-28T13:36:08;4.00;;;1.40;;
49460;SDS011;35355;49.198;-0.368;2024-02-28T13:38:34;5.43;;;1.10;;
49460;SDS011;35355;49.198;-0.368;2024-02-28T13:41:00;1.73;;;1.17;;
49460;SDS011;35355;49.198;-0.368;2024-02-28T13:43:26;5.35;;;1.35;;
49460;SDS011;35355;49.198;-0.368;2024-02-28T13:45:54;1.92;;;0.90;;
49460;SDS011;35355;49.198;-0.368;2024-02-28T13:48:25;4.75;;;1.65;;
49460;SDS011;35355;49.198;-0.368;2024-02-28T13:50:54;2.45;;;1.38;;
49460;SDS011;35355;49.198;-0.368;2024-02-28T13:53:20;2.63;;;0.88;;
49460;SDS011;35355;49.198;-0.368;2024-02-28T13:55:45;2.08;;;1.38;;
49460;SDS011;35355;49.198;-0.368;2024-02-28T13:58:11;6.35;;;1.75;;
49460;SDS011;35355;49.198;-0.368;2024-02-28T14:00:40;2.33;;;1.60;;
49460;SDS011;35355;49.198;-0.368;2024-02-28T14:03:15;2.53;;;1.58;;
49460;SDS011;35355;49.198;-0.368;2024-02-28T14:05:41;3.13;;;1.63;;
49460;SDS011;35355;49.198;-0.368;2024-02-28T14:08:06;3.67;;;2.25;;
49460;SDS011;35355;49.198;-0.368;2024-02-28T14:10:37;2.80;;;1.77;;
49460;SDS011;35355;49.198;-0.368;2024-02-28T14:13:03;2.20;;;1.50;;
49460;SDS011;35355;49.198;-0.368;2024-02-28T14:15:29;2.92;;;1.60;;
49460;SDS011;35355;49.198;-0.368;2024-02-28T14:17:54;3.55;;;1.70;;
49460;SDS011;35355;49.198;-0.368;2024-02-28T14:20:20;3.63;;;1.80;;
49460;SDS011;35355;49.198;-0.368;2024-02-28T14:22:45;4.18;;;1.77;;
49460;SDS011;35355;49.198;-0.368;2024-02-28T14:25:11;4.15;;;1.90;;